Warning: Javascript must be enabled to use all the features on this page!


Page Loading - Please Wait...

* We've detected you're using a mobile device. Find our Next Generation Station Page here.
Click to hideNews Bulletins

Peak Streamflow for Arizona

Click to hide state-specific text

Welcome to the NWIS-Web for the Arizona Water Science Center


The majority of USGS Gaging Stations are funded though a cooperative program between the USGS other interested agencies.
Follow this link for information on the Cooperative Water Program with the USGS.


Arizona Water Science Center Home Page
Colorado Basin River Forecast Center (CBRFC) - provided by the National Weather Service, AHPS. CBRFC on an interactive map.
Threatened and Endangered USGS Gaging Stations in Arizona

USGS 09484000 SABINO CREEK NEAR TUCSON, AZ

Pima County, Arizona
Hydrologic Unit Code 15050302
Latitude  32°18'53", Longitude 110°48'39.3" NAD83
Drainage area 35.5  square miles
Gage datum 2,720 feet above NGVD29
Output formats
Table
Graph
Tab-separated file
peakfq (watstore) format
Reselect output format
Water
Year
Date Gage
Height
(feet)
Stream-
flow
(cfs)
1932 1932-07-15 5.45 706
1933 1933-09-10 4.73 510
1934 1934-09-22 4.59 472
1935 1935-02-06 4.85 540
1936 1936-01-29 4.69 500
1937 1937-02-07 6.51 2,020
1938 1938-03-03 7.13 3,200
1939 1939-08-06 3.96 385
1940 1940-02-23 4.98 904
1941 1940-12-30 7.13 3,180
1942 1942-09-10 4.34 449
1943 1943-03-05 4.56 567
1944 1944-07-08 3.31 175
1945 1945-07-30 5.15 916
1946 1946-08-23 6.30 2,000
1947 1946-12-26 3.47 227
1948 1948-08-06 4.06 380
1949 1949-08-08 5.78 1,430
1950 1950-07-07 6.50 2,260
1951 1951-08-02 5.11 750
1952 1952-01-13 6.25 1,640
1953 1953-07-16 5.31 861
1954 1954-03-23 8.43 5,110
1955 1955-08-03 6.55 2,000
1956 1956-08-11 2.33 55.0
1957 1957-01-09 6.65 2,030
1958 1958-03-22 5.85 1,500
1959 1959-07-26 7.85 4,240
1960 1959-12-24 5.95 1,600
1961 1961-08-30 5.25 910
1962 1962-09-26 5.44 1,010
1963 1963-08-15 6.54 2,070
1964 1964-09-13 5.82 1,310
1965 1965-02-07 4.24 244
1966 1966-08-10 9.65 6,400
1967 1967-07-17 5.67 788
1968 1967-12-19 7.30 2,340
1969 1969-01-14 4.99 310
1970 1970-09-06 10.21 7,730
1971 1971-08-10 5.52 660
1972 1971-10-01 6.87 1,710
1973 1972-10-19 7.68 2,750
1974 1974-07-20 4.78 117
1975 1975 3.84Bm 70.04,Bm
1976 1976-09-26 5.57 580
1977 1977-07-10 5.38 480
1978 1978-03-02 8.20 3,160
1979 1978-12-18 11.76 7,400
1980 1980-02-14 7.50 2,290
1981 1981-07-31 6.45 1,420
1982 1982-08-13 3.65 2,000
1983 1983-02-03 3.08 1,340
1984 1983-10-01 5.666 6,500
1985 1984-12-28 3.92 2,350
1986 1986-02-16 2.65 910
1987 1987-08-13 2.60 866
1988 1988-08-20 1.90 350
1989 1989-08-07 1.90 350
1990 1990-07-20 3.04 1,290
1991 1991-03-01 4.09 2,600
1992 1992-02-13 3.66 2,000
1993 1993-01-08 7.60 12,900
1994 1994-09-03 2.22 564
1995 1995-02-15 4.64 3,530
1996 1996-07-27 4.28 2,900
1997 1997-08-08 1.85 321
1998 1998-07-22 3.18 1,450
1999 1999-07-15 8.25 15,400
2000 1999-10-03 1.60 186
2001 2000-10-22 3.11 1,370
2002 2002-08-05 2.03 433
2003 2003-08-23 4.43 3,140
2004 2004-07-23 3.25 1,470
2005 2005-02-12 4.42 3,120
2006 2006-07-31 9.04 15,7002
2007 2007-07-28 5.92 4,960
2008 2008-01-28 6.14 5,410
2009 2008-12-26 2.09 298
2010 2010-01-22 2.96 846
2011 2011-08-19 1.56 101
2012 2012-08-23 2.00 229
2013 2013-07-16 3.435 1,4502
2014 2014-09-04 3.55 1,600
2015 2015-01-30 3.26 1,260
2016 2016-08-11 1.87 215
2017 2017-01-21 3.92 2,090
2018 2018-02-15 2.04 298
2019 2019-02-15 5.595 5,1102
2020 2019-11-21 2.64 692
?
  Peak Gage-Height Qualification Codes.
?
  Peak Streamflow Qualification Codes.